sensor_id;sensor_type;location;lat;lon;timestamp;P1;durP1;ratioP1;P2;durP2;ratioP2
18200;SDS011;9226;47.858;9.594;2023-07-31T00:01:26;3.10;;;2.30;;
18200;SDS011;9226;47.858;9.594;2023-07-31T00:03:51;4.37;;;2.37;;
18200;SDS011;9226;47.858;9.594;2023-07-31T00:06:17;4.60;;;2.10;;
18200;SDS011;9226;47.858;9.594;2023-07-31T00:08:42;3.47;;;2.33;;
18200;SDS011;9226;47.858;9.594;2023-07-31T00:11:07;6.67;;;2.20;;
18200;SDS011;9226;47.858;9.594;2023-07-31T00:13:33;5.63;;;2.30;;
18200;SDS011;9226;47.858;9.594;2023-07-31T00:15:58;3.30;;;2.03;;
18200;SDS011;9226;47.858;9.594;2023-07-31T00:18:24;4.00;;;2.00;;
18200;SDS011;9226;47.858;9.594;2023-07-31T00:20:50;4.30;;;1.90;;
18200;SDS011;9226;47.858;9.594;2023-07-31T00:23:15;4.10;;;2.00;;
18200;SDS011;9226;47.858;9.594;2023-07-31T00:25:41;5.23;;;2.33;;
18200;SDS011;9226;47.858;9.594;2023-07-31T00:28:06;5.30;;;2.20;;
18200;SDS011;9226;47.858;9.594;2023-07-31T00:30:32;6.73;;;2.17;;
18200;SDS011;9226;47.858;9.594;2023-07-31T00:32:57;3.40;;;2.40;;
18200;SDS011;9226;47.858;9.594;2023-07-31T00:35:22;4.73;;;2.30;;
18200;SDS011;9226;47.858;9.594;2023-07-31T00:37:48;6.77;;;2.30;;
18200;SDS011;9226;47.858;9.594;2023-07-31T00:40:13;6.80;;;2.10;;
18200;SDS011;9226;47.858;9.594;2023-07-31T00:42:39;4.87;;;2.53;;
18200;SDS011;9226;47.858;9.594;2023-07-31T00:45:05;6.10;;;2.73;;
18200;SDS011;9226;47.858;9.594;2023-07-31T00:47:30;8.60;;;2.77;;
18200;SDS011;9226;47.858;9.594;2023-07-31T00:49:56;6.40;;;2.50;;
18200;SDS011;9226;47.858;9.594;2023-07-31T00:52:22;4.83;;;2.67;;
18200;SDS011;9226;47.858;9.594;2023-07-31T00:54:48;5.40;;;2.70;;
18200;SDS011;9226;47.858;9.594;2023-07-31T00:57:14;4.07;;;2.50;;
18200;SDS011;9226;47.858;9.594;2023-07-31T00:59:40;3.83;;;2.47;;
18200;SDS011;9226;47.858;9.594;2023-07-31T01:02:05;4.40;;;2.60;;
18200;SDS011;9226;47.858;9.594;2023-07-31T01:04:31;3.00;;;2.00;;
18200;SDS011;9226;47.858;9.594;2023-07-31T01:12:26;4.93;;;2.03;;
18200;SDS011;9226;47.858;9.594;2023-07-31T01:15:10;4.63;;;2.30;;
18200;SDS011;9226;47.858;9.594;2023-07-31T01:17:36;3.10;;;2.00;;
18200;SDS011;9226;47.858;9.594;2023-07-31T01:20:05;2.77;;;2.00;;
18200;SDS011;9226;47.858;9.594;2023-07-31T01:25:48;6.97;;;2.47;;
18200;SDS011;9226;47.858;9.594;2023-07-31T01:31:07;7.63;;;2.70;;
18200;SDS011;9226;47.858;9.594;2023-07-31T01:33:36;5.13;;;2.83;;
18200;SDS011;9226;47.858;9.594;2023-07-31T01:36:02;6.97;;;2.83;;
18200;SDS011;9226;47.858;9.594;2023-07-31T01:38:28;5.70;;;2.70;;
18200;SDS011;9226;47.858;9.594;2023-07-31T01:40:54;4.30;;;2.90;;
18200;SDS011;9226;47.858;9.594;2023-07-31T01:43:19;7.57;;;3.00;;
18200;SDS011;9226;47.858;9.594;2023-07-31T01:45:45;10.00;;;3.20;;
18200;SDS011;9226;47.858;9.594;2023-07-31T01:48:10;6.73;;;2.83;;
18200;SDS011;9226;47.858;9.594;2023-07-31T01:50:35;6.27;;;2.83;;
18200;SDS011;9226;47.858;9.594;2023-07-31T01:53:01;7.03;;;3.10;;
18200;SDS011;9226;47.858;9.594;2023-07-31T01:55:26;5.67;;;2.63;;
18200;SDS011;9226;47.858;9.594;2023-07-31T01:57:52;10.50;;;3.40;;
18200;SDS011;9226;47.858;9.594;2023-07-31T02:00:17;6.43;;;2.93;;
18200;SDS011;9226;47.858;9.594;2023-07-31T02:02:43;4.03;;;2.83;;
18200;SDS011;9226;47.858;9.594;2023-07-31T02:05:08;11.93;;;3.30;;
18200;SDS011;9226;47.858;9.594;2023-07-31T02:07:34;4.83;;;2.87;;
18200;SDS011;9226;47.858;9.594;2023-07-31T02:09:59;8.60;;;3.07;;
18200;SDS011;9226;47.858;9.594;2023-07-31T02:12:24;3.93;;;2.83;;
18200;SDS011;9226;47.858;9.594;2023-07-31T02:14:50;5.37;;;2.77;;
18200;SDS011;9226;47.858;9.594;2023-07-31T02:17:15;3.77;;;2.37;;
18200;SDS011;9226;47.858;9.594;2023-07-31T02:19:40;10.57;;;2.40;;
18200;SDS011;9226;47.858;9.594;2023-07-31T02:22:06;4.83;;;2.23;;
18200;SDS011;9226;47.858;9.594;2023-07-31T02:24:31;5.13;;;2.50;;
18200;SDS011;9226;47.858;9.594;2023-07-31T02:26:57;3.57;;;2.33;;
18200;SDS011;9226;47.858;9.594;2023-07-31T02:29:22;3.80;;;2.10;;
18200;SDS011;9226;47.858;9.594;2023-07-31T02:31:47;5.33;;;2.37;;
18200;SDS011;9226;47.858;9.594;2023-07-31T02:34:13;3.83;;;2.37;;
18200;SDS011;9226;47.858;9.594;2023-07-31T02:36:39;3.07;;;2.20;;
18200;SDS011;9226;47.858;9.594;2023-07-31T02:39:04;5.30;;;2.30;;
18200;SDS011;9226;47.858;9.594;2023-07-31T02:41:29;6.17;;;2.60;;
18200;SDS011;9226;47.858;9.594;2023-07-31T02:43:55;4.53;;;2.07;;
18200;SDS011;9226;47.858;9.594;2023-07-31T02:46:20;6.30;;;2.27;;
18200;SDS011;9226;47.858;9.594;2023-07-31T02:48:49;8.27;;;2.10;;
18200;SDS011;9226;47.858;9.594;2023-07-31T02:51:19;5.53;;;1.97;;
18200;SDS011;9226;47.858;9.594;2023-07-31T02:53:46;6.10;;;2.30;;
18200;SDS011;9226;47.858;9.594;2023-07-31T02:56:12;4.00;;;2.60;;
18200;SDS011;9226;47.858;9.594;2023-07-31T02:58:38;4.80;;;2.90;;
18200;SDS011;9226;47.858;9.594;2023-07-31T03:01:03;5.53;;;2.70;;
18200;SDS011;9226;47.858;9.594;2023-07-31T03:03:29;6.07;;;3.33;;
18200;SDS011;9226;47.858;9.594;2023-07-31T03:05:54;3.70;;;2.47;;
18200;SDS011;9226;47.858;9.594;2023-07-31T03:08:20;7.17;;;2.70;;
18200;SDS011;9226;47.858;9.594;2023-07-31T03:10:45;6.80;;;2.53;;
18200;SDS011;9226;47.858;9.594;2023-07-31T03:13:10;3.87;;;2.57;;
18200;SDS011;9226;47.858;9.594;2023-07-31T03:15:36;5.50;;;3.30;;
18200;SDS011;9226;47.858;9.594;2023-07-31T03:18:01;5.57;;;3.13;;
18200;SDS011;9226;47.858;9.594;2023-07-31T03:20:26;7.77;;;3.63;;
18200;SDS011;9226;47.858;9.594;2023-07-31T03:22:52;5.63;;;2.87;;
18200;SDS011;9226;47.858;9.594;2023-07-31T03:25:17;6.50;;;2.80;;
18200;SDS011;9226;47.858;9.594;2023-07-31T03:27:42;3.77;;;2.50;;
18200;SDS011;9226;47.858;9.594;2023-07-31T03:30:08;6.20;;;3.03;;
18200;SDS011;9226;47.858;9.594;2023-07-31T03:32:33;4.60;;;2.70;;
18200;SDS011;9226;47.858;9.594;2023-07-31T03:34:59;3.60;;;2.60;;
18200;SDS011;9226;47.858;9.594;2023-07-31T03:37:25;6.27;;;3.10;;
18200;SDS011;9226;47.858;9.594;2023-07-31T03:39:51;5.13;;;2.57;;
18200;SDS011;9226;47.858;9.594;2023-07-31T03:42:18;5.83;;;2.30;;
18200;SDS011;9226;47.858;9.594;2023-07-31T03:44:43;5.03;;;2.60;;
18200;SDS011;9226;47.858;9.594;2023-07-31T03:47:09;6.17;;;2.70;;
18200;SDS011;9226;47.858;9.594;2023-07-31T03:49:34;3.87;;;2.50;;
18200;SDS011;9226;47.858;9.594;2023-07-31T03:52:00;6.73;;;3.07;;
18200;SDS011;9226;47.858;9.594;2023-07-31T03:54:25;6.07;;;3.27;;
18200;SDS011;9226;47.858;9.594;2023-07-31T03:56:50;8.73;;;2.90;;
18200;SDS011;9226;47.858;9.594;2023-07-31T03:59:16;4.13;;;2.80;;
18200;SDS011;9226;47.858;9.594;2023-07-31T04:01:41;6.60;;;3.10;;
18200;SDS011;9226;47.858;9.594;2023-07-31T04:04:06;6.73;;;2.67;;
18200;SDS011;9226;47.858;9.594;2023-07-31T04:06:32;4.27;;;2.50;;
18200;SDS011;9226;47.858;9.594;2023-07-31T04:08:57;8.43;;;3.20;;
18200;SDS011;9226;47.858;9.594;2023-07-31T04:11:23;6.53;;;2.90;;
18200;SDS011;9226;47.858;9.594;2023-07-31T04:13:48;6.20;;;2.83;;
18200;SDS011;9226;47.858;9.594;2023-07-31T04:16:14;9.83;;;2.70;;
18200;SDS011;9226;47.858;9.594;2023-07-31T04:18:39;7.23;;;2.50;;
18200;SDS011;9226;47.858;9.594;2023-07-31T04:21:05;3.80;;;2.53;;
18200;SDS011;9226;47.858;9.594;2023-07-31T04:23:30;5.00;;;2.40;;
18200;SDS011;9226;47.858;9.594;2023-07-31T04:25:56;6.43;;;2.40;;
18200;SDS011;9226;47.858;9.594;2023-07-31T04:28:21;5.07;;;2.60;;
18200;SDS011;9226;47.858;9.594;2023-07-31T04:30:47;5.90;;;2.63;;
18200;SDS011;9226;47.858;9.594;2023-07-31T04:33:13;5.43;;;2.80;;
18200;SDS011;9226;47.858;9.594;2023-07-31T04:35:38;4.67;;;2.67;;
18200;SDS011;9226;47.858;9.594;2023-07-31T04:38:05;4.37;;;2.70;;
18200;SDS011;9226;47.858;9.594;2023-07-31T04:40:30;4.67;;;2.63;;
18200;SDS011;9226;47.858;9.594;2023-07-31T04:42:56;3.80;;;2.60;;
18200;SDS011;9226;47.858;9.594;2023-07-31T04:45:21;6.83;;;2.70;;
18200;SDS011;9226;47.858;9.594;2023-07-31T04:47:47;6.20;;;2.40;;
18200;SDS011;9226;47.858;9.594;2023-07-31T04:50:12;6.13;;;2.23;;
18200;SDS011;9226;47.858;9.594;2023-07-31T04:52:38;8.30;;;2.50;;
18200;SDS011;9226;47.858;9.594;2023-07-31T04:55:03;7.73;;;2.30;;
18200;SDS011;9226;47.858;9.594;2023-07-31T04:57:29;3.43;;;2.10;;
18200;SDS011;9226;47.858;9.594;2023-07-31T04:59:54;5.57;;;2.20;;
18200;SDS011;9226;47.858;9.594;2023-07-31T05:02:20;3.53;;;2.40;;
18200;SDS011;9226;47.858;9.594;2023-07-31T05:04:46;5.33;;;2.50;;
18200;SDS011;9226;47.858;9.594;2023-07-31T05:07:11;4.70;;;2.07;;
18200;SDS011;9226;47.858;9.594;2023-07-31T05:09:37;3.17;;;2.07;;
18200;SDS011;9226;47.858;9.594;2023-07-31T05:12:04;5.23;;;2.47;;
18200;SDS011;9226;47.858;9.594;2023-07-31T05:14:30;7.83;;;2.27;;
18200;SDS011;9226;47.858;9.594;2023-07-31T05:16:56;4.27;;;2.20;;
18200;SDS011;9226;47.858;9.594;2023-07-31T05:19:21;5.33;;;3.00;;
18200;SDS011;9226;47.858;9.594;2023-07-31T05:21:47;5.77;;;2.60;;
18200;SDS011;9226;47.858;9.594;2023-07-31T05:24:12;4.97;;;2.90;;
18200;SDS011;9226;47.858;9.594;2023-07-31T05:26:37;6.27;;;3.40;;
18200;SDS011;9226;47.858;9.594;2023-07-31T05:29:03;4.33;;;2.93;;
18200;SDS011;9226;47.858;9.594;2023-07-31T05:31:28;6.03;;;2.60;;
18200;SDS011;9226;47.858;9.594;2023-07-31T05:33:54;13.70;;;2.80;;
18200;SDS011;9226;47.858;9.594;2023-07-31T05:36:19;3.80;;;2.73;;
18200;SDS011;9226;47.858;9.594;2023-07-31T05:38:45;7.50;;;3.00;;
18200;SDS011;9226;47.858;9.594;2023-07-31T05:41:13;10.80;;;2.93;;
18200;SDS011;9226;47.858;9.594;2023-07-31T05:43:38;5.57;;;3.07;;
18200;SDS011;9226;47.858;9.594;2023-07-31T05:46:04;3.27;;;2.43;;
18200;SDS011;9226;47.858;9.594;2023-07-31T05:48:31;4.53;;;2.93;;
18200;SDS011;9226;47.858;9.594;2023-07-31T05:50:57;5.53;;;2.83;;
18200;SDS011;9226;47.858;9.594;2023-07-31T05:53:22;6.53;;;2.70;;
18200;SDS011;9226;47.858;9.594;2023-07-31T05:55:48;5.53;;;2.60;;
18200;SDS011;9226;47.858;9.594;2023-07-31T05:58:14;5.20;;;2.50;;
18200;SDS011;9226;47.858;9.594;2023-07-31T06:00:39;6.63;;;2.50;;
18200;SDS011;9226;47.858;9.594;2023-07-31T06:03:06;4.97;;;3.00;;
18200;SDS011;9226;47.858;9.594;2023-07-31T06:05:31;5.73;;;3.10;;
18200;SDS011;9226;47.858;9.594;2023-07-31T06:07:56;3.57;;;2.33;;
18200;SDS011;9226;47.858;9.594;2023-07-31T06:10:22;8.93;;;3.10;;
18200;SDS011;9226;47.858;9.594;2023-07-31T06:12:47;9.07;;;3.10;;
18200;SDS011;9226;47.858;9.594;2023-07-31T06:15:13;5.63;;;2.80;;
18200;SDS011;9226;47.858;9.594;2023-07-31T06:17:38;9.33;;;3.27;;
18200;SDS011;9226;47.858;9.594;2023-07-31T06:20:05;4.60;;;2.50;;
18200;SDS011;9226;47.858;9.594;2023-07-31T06:22:31;7.10;;;2.40;;
18200;SDS011;9226;47.858;9.594;2023-07-31T06:24:57;3.90;;;1.93;;
18200;SDS011;9226;47.858;9.594;2023-07-31T06:27:23;3.33;;;2.10;;
18200;SDS011;9226;47.858;9.594;2023-07-31T06:29:48;4.23;;;2.23;;
18200;SDS011;9226;47.858;9.594;2023-07-31T06:32:14;4.47;;;2.20;;
18200;SDS011;9226;47.858;9.594;2023-07-31T06:34:39;4.00;;;2.00;;
18200;SDS011;9226;47.858;9.594;2023-07-31T06:37:05;8.70;;;2.20;;
18200;SDS011;9226;47.858;9.594;2023-07-31T06:39:30;5.77;;;2.00;;
18200;SDS011;9226;47.858;9.594;2023-07-31T06:41:56;2.93;;;1.87;;
18200;SDS011;9226;47.858;9.594;2023-07-31T06:44:21;4.00;;;1.60;;
18200;SDS011;9226;47.858;9.594;2023-07-31T06:46:47;4.23;;;1.80;;
18200;SDS011;9226;47.858;9.594;2023-07-31T06:49:12;3.50;;;1.77;;
18200;SDS011;9226;47.858;9.594;2023-07-31T06:51:40;6.37;;;1.50;;
18200;SDS011;9226;47.858;9.594;2023-07-31T06:54:05;4.40;;;1.70;;
18200;SDS011;9226;47.858;9.594;2023-07-31T06:56:31;4.53;;;1.93;;
18200;SDS011;9226;47.858;9.594;2023-07-31T06:58:56;7.27;;;2.13;;
18200;SDS011;9226;47.858;9.594;2023-07-31T07:01:21;5.10;;;1.60;;
18200;SDS011;9226;47.858;9.594;2023-07-31T07:03:47;5.40;;;1.90;;
18200;SDS011;9226;47.858;9.594;2023-07-31T07:06:15;3.73;;;2.07;;
18200;SDS011;9226;47.858;9.594;2023-07-31T07:08:41;5.30;;;2.10;;
18200;SDS011;9226;47.858;9.594;2023-07-31T07:11:07;3.23;;;1.30;;
18200;SDS011;9226;47.858;9.594;2023-07-31T07:13:33;4.90;;;1.90;;
18200;SDS011;9226;47.858;9.594;2023-07-31T07:15:59;3.97;;;1.60;;
18200;SDS011;9226;47.858;9.594;2023-07-31T07:18:24;7.20;;;1.60;;
18200;SDS011;9226;47.858;9.594;2023-07-31T07:20:50;10.67;;;2.10;;
18200;SDS011;9226;47.858;9.594;2023-07-31T07:23:17;12.63;;;2.30;;
18200;SDS011;9226;47.858;9.594;2023-07-31T07:25:43;4.70;;;1.77;;
18200;SDS011;9226;47.858;9.594;2023-07-31T07:28:09;3.97;;;1.90;;
18200;SDS011;9226;47.858;9.594;2023-07-31T07:30:35;3.77;;;1.87;;
18200;SDS011;9226;47.858;9.594;2023-07-31T07:33:00;4.73;;;1.70;;
18200;SDS011;9226;47.858;9.594;2023-07-31T07:35:26;5.90;;;1.97;;
18200;SDS011;9226;47.858;9.594;2023-07-31T07:37:51;3.87;;;1.93;;
18200;SDS011;9226;47.858;9.594;2023-07-31T07:40:17;4.63;;;1.60;;
18200;SDS011;9226;47.858;9.594;2023-07-31T07:42:42;4.63;;;2.20;;
18200;SDS011;9226;47.858;9.594;2023-07-31T07:45:08;5.77;;;1.80;;
18200;SDS011;9226;47.858;9.594;2023-07-31T07:47:33;10.50;;;2.00;;
18200;SDS011;9226;47.858;9.594;2023-07-31T07:49:59;3.93;;;1.83;;
18200;SDS011;9226;47.858;9.594;2023-07-31T07:52:24;5.93;;;1.90;;
18200;SDS011;9226;47.858;9.594;2023-07-31T07:54:50;3.23;;;1.63;;
18200;SDS011;9226;47.858;9.594;2023-07-31T07:57:15;4.00;;;1.60;;
18200;SDS011;9226;47.858;9.594;2023-07-31T07:59:40;3.90;;;1.80;;
18200;SDS011;9226;47.858;9.594;2023-07-31T08:02:06;3.67;;;2.20;;
18200;SDS011;9226;47.858;9.594;2023-07-31T08:04:31;3.73;;;2.00;;
18200;SDS011;9226;47.858;9.594;2023-07-31T08:06:57;3.20;;;1.50;;
18200;SDS011;9226;47.858;9.594;2023-07-31T08:09:22;5.80;;;1.90;;
18200;SDS011;9226;47.858;9.594;2023-07-31T08:11:48;8.33;;;2.33;;
18200;SDS011;9226;47.858;9.594;2023-07-31T08:14:13;3.80;;;1.77;;
18200;SDS011;9226;47.858;9.594;2023-07-31T08:16:38;3.20;;;1.73;;
18200;SDS011;9226;47.858;9.594;2023-07-31T08:19:04;4.00;;;1.83;;
18200;SDS011;9226;47.858;9.594;2023-07-31T08:21:29;3.87;;;1.60;;
18200;SDS011;9226;47.858;9.594;2023-07-31T08:23:55;4.67;;;1.80;;
18200;SDS011;9226;47.858;9.594;2023-07-31T08:26:20;4.90;;;1.87;;
18200;SDS011;9226;47.858;9.594;2023-07-31T08:28:46;1.97;;;1.40;;
18200;SDS011;9226;47.858;9.594;2023-07-31T08:31:12;4.53;;;1.90;;
18200;SDS011;9226;47.858;9.594;2023-07-31T08:33:38;4.77;;;1.87;;
18200;SDS011;9226;47.858;9.594;2023-07-31T08:36:04;3.00;;;1.60;;
18200;SDS011;9226;47.858;9.594;2023-07-31T08:38:30;3.40;;;1.40;;
18200;SDS011;9226;47.858;9.594;2023-07-31T08:40:58;5.37;;;1.77;;
18200;SDS011;9226;47.858;9.594;2023-07-31T08:43:26;3.73;;;1.63;;
18200;SDS011;9226;47.858;9.594;2023-07-31T08:45:52;6.27;;;1.40;;
18200;SDS011;9226;47.858;9.594;2023-07-31T08:48:19;3.07;;;1.57;;
18200;SDS011;9226;47.858;9.594;2023-07-31T08:50:46;3.47;;;1.67;;
18200;SDS011;9226;47.858;9.594;2023-07-31T08:53:11;4.87;;;1.53;;
18200;SDS011;9226;47.858;9.594;2023-07-31T08:55:37;3.60;;;1.37;;
18200;SDS011;9226;47.858;9.594;2023-07-31T08:58:03;5.50;;;1.90;;
18200;SDS011;9226;47.858;9.594;2023-07-31T09:00:30;6.03;;;1.47;;
18200;SDS011;9226;47.858;9.594;2023-07-31T09:02:59;4.13;;;1.57;;
18200;SDS011;9226;47.858;9.594;2023-07-31T09:05:28;4.13;;;1.30;;
18200;SDS011;9226;47.858;9.594;2023-07-31T09:07:55;4.43;;;1.73;;
18200;SDS011;9226;47.858;9.594;2023-07-31T09:10:21;4.30;;;1.40;;
18200;SDS011;9226;47.858;9.594;2023-07-31T09:12:47;3.83;;;1.80;;
18200;SDS011;9226;47.858;9.594;2023-07-31T09:15:13;6.13;;;1.40;;
18200;SDS011;9226;47.858;9.594;2023-07-31T09:17:39;1.90;;;1.50;;
18200;SDS011;9226;47.858;9.594;2023-07-31T09:20:18;7.23;;;1.53;;
18200;SDS011;9226;47.858;9.594;2023-07-31T09:22:46;3.73;;;1.47;;
18200;SDS011;9226;47.858;9.594;2023-07-31T09:25:16;8.27;;;1.80;;
18200;SDS011;9226;47.858;9.594;2023-07-31T09:27:46;3.97;;;1.57;;
18200;SDS011;9226;47.858;9.594;2023-07-31T09:30:20;4.63;;;1.53;;
18200;SDS011;9226;47.858;9.594;2023-07-31T09:32:46;3.80;;;1.40;;
18200;SDS011;9226;47.858;9.594;2023-07-31T09:35:27;3.73;;;1.30;;
18200;SDS011;9226;47.858;9.594;2023-07-31T09:37:53;3.13;;;1.50;;
18200;SDS011;9226;47.858;9.594;2023-07-31T09:40:27;2.63;;;1.40;;
18200;SDS011;9226;47.858;9.594;2023-07-31T09:43:00;3.33;;;1.40;;
18200;SDS011;9226;47.858;9.594;2023-07-31T09:45:33;2.53;;;1.33;;
18200;SDS011;9226;47.858;9.594;2023-07-31T09:48:01;4.40;;;1.60;;
18200;SDS011;9226;47.858;9.594;2023-07-31T09:50:27;5.23;;;1.57;;
18200;SDS011;9226;47.858;9.594;2023-07-31T09:52:52;6.40;;;1.90;;
18200;SDS011;9226;47.858;9.594;2023-07-31T09:55:18;3.20;;;1.30;;
18200;SDS011;9226;47.858;9.594;2023-07-31T09:57:45;5.60;;;1.43;;
18200;SDS011;9226;47.858;9.594;2023-07-31T10:00:13;4.00;;;1.40;;
18200;SDS011;9226;47.858;9.594;2023-07-31T10:02:40;6.27;;;1.73;;
18200;SDS011;9226;47.858;9.594;2023-07-31T10:05:06;4.27;;;1.57;;
18200;SDS011;9226;47.858;9.594;2023-07-31T10:07:36;4.20;;;1.57;;
18200;SDS011;9226;47.858;9.594;2023-07-31T10:10:04;6.40;;;1.60;;
18200;SDS011;9226;47.858;9.594;2023-07-31T10:12:32;3.63;;;1.57;;
18200;SDS011;9226;47.858;9.594;2023-07-31T10:14:59;5.40;;;2.07;;
18200;SDS011;9226;47.858;9.594;2023-07-31T10:17:26;4.03;;;1.73;;
18200;SDS011;9226;47.858;9.594;2023-07-31T10:19:52;5.53;;;1.70;;
18200;SDS011;9226;47.858;9.594;2023-07-31T10:22:19;4.23;;;1.83;;
18200;SDS011;9226;47.858;9.594;2023-07-31T10:24:46;4.43;;;1.73;;
18200;SDS011;9226;47.858;9.594;2023-07-31T10:27:11;5.43;;;1.70;;
18200;SDS011;9226;47.858;9.594;2023-07-31T10:29:41;6.20;;;1.70;;
18200;SDS011;9226;47.858;9.594;2023-07-31T10:32:09;6.20;;;1.83;;
18200;SDS011;9226;47.858;9.594;2023-07-31T10:34:36;5.93;;;2.17;;
18200;SDS011;9226;47.858;9.594;2023-07-31T10:37:19;3.97;;;1.73;;
18200;SDS011;9226;47.858;9.594;2023-07-31T10:42:31;4.03;;;1.80;;
18200;SDS011;9226;47.858;9.594;2023-07-31T10:45:01;2.13;;;1.50;;
18200;SDS011;9226;47.858;9.594;2023-07-31T10:47:31;5.03;;;2.00;;
18200;SDS011;9226;47.858;9.594;2023-07-31T10:50:12;3.27;;;1.47;;
18200;SDS011;9226;47.858;9.594;2023-07-31T10:52:43;4.63;;;1.70;;
18200;SDS011;9226;47.858;9.594;2023-07-31T10:58:11;7.73;;;1.80;;
18200;SDS011;9226;47.858;9.594;2023-07-31T11:00:38;2.07;;;1.30;;
18200;SDS011;9226;47.858;9.594;2023-07-31T11:03:09;4.27;;;1.73;;
18200;SDS011;9226;47.858;9.594;2023-07-31T11:08:34;5.43;;;2.23;;
18200;SDS011;9226;47.858;9.594;2023-07-31T11:16:22;4.40;;;1.83;;
18200;SDS011;9226;47.858;9.594;2023-07-31T11:18:49;5.30;;;1.63;;
18200;SDS011;9226;47.858;9.594;2023-07-31T11:21:25;4.87;;;2.00;;
18200;SDS011;9226;47.858;9.594;2023-07-31T11:23:51;5.67;;;1.80;;
18200;SDS011;9226;47.858;9.594;2023-07-31T11:26:18;3.23;;;1.80;;
18200;SDS011;9226;47.858;9.594;2023-07-31T11:28:48;2.90;;;2.00;;
18200;SDS011;9226;47.858;9.594;2023-07-31T11:31:15;4.80;;;1.90;;
18200;SDS011;9226;47.858;9.594;2023-07-31T11:33:41;6.40;;;1.93;;
18200;SDS011;9226;47.858;9.594;2023-07-31T11:36:11;4.73;;;1.83;;
18200;SDS011;9226;47.858;9.594;2023-07-31T11:38:40;6.63;;;1.90;;
18200;SDS011;9226;47.858;9.594;2023-07-31T11:41:06;5.60;;;1.93;;
18200;SDS011;9226;47.858;9.594;2023-07-31T11:43:32;4.67;;;1.93;;
18200;SDS011;9226;47.858;9.594;2023-07-31T11:45:58;4.57;;;2.00;;
18200;SDS011;9226;47.858;9.594;2023-07-31T11:48:25;4.73;;;2.03;;
18200;SDS011;9226;47.858;9.594;2023-07-31T11:50:52;4.17;;;1.67;;
18200;SDS011;9226;47.858;9.594;2023-07-31T11:56:03;2.93;;;1.70;;
18200;SDS011;9226;47.858;9.594;2023-07-31T11:58:31;3.20;;;1.83;;
18200;SDS011;9226;47.858;9.594;2023-07-31T12:00:57;2.90;;;1.60;;
18200;SDS011;9226;47.858;9.594;2023-07-31T12:03:23;3.47;;;1.63;;
18200;SDS011;9226;47.858;9.594;2023-07-31T12:05:49;4.10;;;1.80;;
18200;SDS011;9226;47.858;9.594;2023-07-31T12:08:15;7.23;;;1.93;;
18200;SDS011;9226;47.858;9.594;2023-07-31T12:10:41;3.97;;;1.57;;
18200;SDS011;9226;47.858;9.594;2023-07-31T12:13:10;4.53;;;1.70;;
18200;SDS011;9226;47.858;9.594;2023-07-31T12:18:13;3.33;;;1.90;;
18200;SDS011;9226;47.858;9.594;2023-07-31T12:20:44;5.47;;;1.77;;
18200;SDS011;9226;47.858;9.594;2023-07-31T12:23:17;2.57;;;1.60;;
18200;SDS011;9226;47.858;9.594;2023-07-31T12:25:44;4.70;;;1.97;;
18200;SDS011;9226;47.858;9.594;2023-07-31T12:28:10;3.97;;;1.50;;
18200;SDS011;9226;47.858;9.594;2023-07-31T12:30:39;3.87;;;1.87;;
18200;SDS011;9226;47.858;9.594;2023-07-31T12:33:06;5.30;;;1.80;;
18200;SDS011;9226;47.858;9.594;2023-07-31T12:35:37;4.90;;;1.70;;
18200;SDS011;9226;47.858;9.594;2023-07-31T12:38:05;3.83;;;1.60;;
18200;SDS011;9226;47.858;9.594;2023-07-31T12:40:31;4.40;;;1.80;;
18200;SDS011;9226;47.858;9.594;2023-07-31T12:42:56;3.80;;;1.80;;
18200;SDS011;9226;47.858;9.594;2023-07-31T12:45:22;4.10;;;1.70;;
18200;SDS011;9226;47.858;9.594;2023-07-31T12:47:48;4.10;;;1.73;;
18200;SDS011;9226;47.858;9.594;2023-07-31T12:50:13;3.47;;;2.00;;
18200;SDS011;9226;47.858;9.594;2023-07-31T12:52:39;3.40;;;1.73;;
18200;SDS011;9226;47.858;9.594;2023-07-31T12:55:04;4.93;;;1.73;;
18200;SDS011;9226;47.858;9.594;2023-07-31T12:57:30;3.83;;;1.57;;
18200;SDS011;9226;47.858;9.594;2023-07-31T12:59:55;2.10;;;1.63;;
18200;SDS011;9226;47.858;9.594;2023-07-31T13:02:21;4.40;;;1.70;;
18200;SDS011;9226;47.858;9.594;2023-07-31T13:04:46;4.27;;;1.83;;
18200;SDS011;9226;47.858;9.594;2023-07-31T13:07:12;3.63;;;1.60;;
18200;SDS011;9226;47.858;9.594;2023-07-31T13:09:37;3.40;;;1.70;;
18200;SDS011;9226;47.858;9.594;2023-07-31T13:12:02;3.13;;;1.73;;
18200;SDS011;9226;47.858;9.594;2023-07-31T13:14:28;3.10;;;1.83;;
18200;SDS011;9226;47.858;9.594;2023-07-31T13:16:54;3.43;;;1.80;;
18200;SDS011;9226;47.858;9.594;2023-07-31T13:19:19;4.40;;;1.63;;
18200;SDS011;9226;47.858;9.594;2023-07-31T13:21:44;5.80;;;1.60;;
18200;SDS011;9226;47.858;9.594;2023-07-31T13:24:10;2.23;;;1.60;;
18200;SDS011;9226;47.858;9.594;2023-07-31T13:26:36;4.23;;;1.87;;
18200;SDS011;9226;47.858;9.594;2023-07-31T13:29:02;2.60;;;1.50;;
18200;SDS011;9226;47.858;9.594;2023-07-31T13:31:27;4.80;;;2.20;;
18200;SDS011;9226;47.858;9.594;2023-07-31T13:33:52;3.77;;;2.20;;
18200;SDS011;9226;47.858;9.594;2023-07-31T13:36:18;6.83;;;2.37;;
18200;SDS011;9226;47.858;9.594;2023-07-31T13:38:43;4.30;;;2.00;;
18200;SDS011;9226;47.858;9.594;2023-07-31T13:41:09;3.73;;;2.13;;
18200;SDS011;9226;47.858;9.594;2023-07-31T13:43:35;3.50;;;1.97;;
18200;SDS011;9226;47.858;9.594;2023-07-31T13:46:01;4.03;;;1.90;;
18200;SDS011;9226;47.858;9.594;2023-07-31T13:48:31;4.10;;;2.03;;
18200;SDS011;9226;47.858;9.594;2023-07-31T13:50:58;4.07;;;2.03;;
18200;SDS011;9226;47.858;9.594;2023-07-31T13:53:23;4.60;;;1.80;;
18200;SDS011;9226;47.858;9.594;2023-07-31T13:55:49;4.40;;;1.70;;
18200;SDS011;9226;47.858;9.594;2023-07-31T13:58:14;4.23;;;1.80;;
18200;SDS011;9226;47.858;9.594;2023-07-31T14:00:39;5.60;;;1.80;;
18200;SDS011;9226;47.858;9.594;2023-07-31T14:03:05;4.77;;;2.00;;
18200;SDS011;9226;47.858;9.594;2023-07-31T14:05:30;6.07;;;2.27;;
18200;SDS011;9226;47.858;9.594;2023-07-31T14:07:56;3.97;;;1.70;;
18200;SDS011;9226;47.858;9.594;2023-07-31T14:10:22;4.50;;;1.80;;
18200;SDS011;9226;47.858;9.594;2023-07-31T14:12:47;3.87;;;2.27;;
18200;SDS011;9226;47.858;9.594;2023-07-31T14:15:12;4.20;;;2.33;;
18200;SDS011;9226;47.858;9.594;2023-07-31T14:17:38;3.97;;;2.20;;
18200;SDS011;9226;47.858;9.594;2023-07-31T14:20:04;3.43;;;2.00;;
18200;SDS011;9226;47.858;9.594;2023-07-31T14:22:29;5.50;;;2.17;;
18200;SDS011;9226;47.858;9.594;2023-07-31T14:24:55;4.70;;;1.97;;
18200;SDS011;9226;47.858;9.594;2023-07-31T14:27:21;3.83;;;2.27;;
18200;SDS011;9226;47.858;9.594;2023-07-31T14:29:46;3.10;;;1.70;;
18200;SDS011;9226;47.858;9.594;2023-07-31T14:32:12;3.37;;;2.07;;
18200;SDS011;9226;47.858;9.594;2023-07-31T14:34:37;4.47;;;1.93;;
18200;SDS011;9226;47.858;9.594;2023-07-31T14:37:02;3.20;;;2.00;;
18200;SDS011;9226;47.858;9.594;2023-07-31T14:39:28;4.50;;;2.30;;
18200;SDS011;9226;47.858;9.594;2023-07-31T14:41:53;5.90;;;2.30;;
18200;SDS011;9226;47.858;9.594;2023-07-31T14:44:19;5.90;;;2.10;;
18200;SDS011;9226;47.858;9.594;2023-07-31T14:46:44;4.53;;;2.13;;
18200;SDS011;9226;47.858;9.594;2023-07-31T14:49:10;4.43;;;2.17;;
18200;SDS011;9226;47.858;9.594;2023-07-31T14:51:35;5.17;;;2.10;;
18200;SDS011;9226;47.858;9.594;2023-07-31T14:54:00;4.33;;;1.80;;
18200;SDS011;9226;47.858;9.594;2023-07-31T14:56:27;8.13;;;2.30;;
18200;SDS011;9226;47.858;9.594;2023-07-31T14:58:53;3.70;;;2.10;;
18200;SDS011;9226;47.858;9.594;2023-07-31T15:01:18;6.73;;;2.50;;
18200;SDS011;9226;47.858;9.594;2023-07-31T15:03:43;3.67;;;2.20;;
18200;SDS011;9226;47.858;9.594;2023-07-31T15:06:09;5.03;;;2.20;;
18200;SDS011;9226;47.858;9.594;2023-07-31T15:08:34;5.23;;;2.17;;
18200;SDS011;9226;47.858;9.594;2023-07-31T15:11:01;6.23;;;2.23;;
18200;SDS011;9226;47.858;9.594;2023-07-31T15:13:27;5.90;;;2.20;;
18200;SDS011;9226;47.858;9.594;2023-07-31T15:15:52;5.80;;;2.13;;
18200;SDS011;9226;47.858;9.594;2023-07-31T15:18:18;5.40;;;2.60;;
18200;SDS011;9226;47.858;9.594;2023-07-31T15:20:43;3.67;;;2.20;;
18200;SDS011;9226;47.858;9.594;2023-07-31T15:23:08;4.73;;;2.00;;
18200;SDS011;9226;47.858;9.594;2023-07-31T15:25:34;5.33;;;2.40;;